createdAt,value
2023-05-12T00:01:38.260Z,16.61
2023-05-12T00:06:39.694Z,17.33
2023-05-12T00:11:41.113Z,17.74
2023-05-12T00:16:43.298Z,17.79
2023-05-12T00:21:44.806Z,17.80
2023-05-12T00:26:46.234Z,16.39
2023-05-12T00:31:47.750Z,16.83
2023-05-12T00:36:49.199Z,17.41
2023-05-12T00:41:58.143Z,17.08
2023-05-12T00:46:59.601Z,17.41
2023-05-12T00:52:02.576Z,17.47
2023-05-12T00:57:04.327Z,17.50
2023-05-12T01:02:07.294Z,17.21
2023-05-12T01:07:22.488Z,17.37
2023-05-12T01:12:26.070Z,17.33
2023-05-12T01:17:31.920Z,17.21
2023-05-12T01:22:33.972Z,17.19
2023-05-12T01:27:39.198Z,17.16
2023-05-12T01:32:42.117Z,17.04
2023-05-12T01:37:44.029Z,17.05
2023-05-12T01:42:45.516Z,17.08
2023-05-12T01:47:47.613Z,16.52
2023-05-12T01:52:49.279Z,16.50
2023-05-12T01:57:52.688Z,16.84
2023-05-12T02:02:55.247Z,16.83
2023-05-12T02:07:57.281Z,16.80
2023-05-12T02:12:58.911Z,16.77
2023-05-12T02:18:03.641Z,16.70
2023-05-12T02:23:05.625Z,16.80
2023-05-12T02:28:10.923Z,16.64
2023-05-12T02:33:13.636Z,16.64
2023-05-12T02:38:15.129Z,16.64
2023-05-12T02:43:16.814Z,16.53
2023-05-12T02:48:18.357Z,16.51
2023-05-12T02:53:19.986Z,16.43
2023-05-12T02:58:22.287Z,16.49
2023-05-12T03:03:23.798Z,16.33
2023-05-12T03:08:25.451Z,16.31
2023-05-12T03:13:26.984Z,16.30
2023-05-12T03:18:29.085Z,16.26
2023-05-12T03:23:31.405Z,16.23
2023-05-12T03:28:33.178Z,16.19
2023-05-12T03:33:34.694Z,16.12
2023-05-12T03:38:36.928Z,16.14
2023-05-12T03:43:38.647Z,16.07
2023-05-12T03:48:40.101Z,16.02
2023-05-12T03:53:45.241Z,15.98
2023-05-12T03:58:47.934Z,16.02
2023-05-12T04:03:51.015Z,15.99
2023-05-12T04:08:52.612Z,15.96
2023-05-12T04:13:54.139Z,15.97
2023-05-12T04:18:57.329Z,15.90
2023-05-12T04:23:59.262Z,15.94
2023-05-12T04:29:04.756Z,15.89
2023-05-12T04:34:06.576Z,16.04
2023-05-12T04:39:09.652Z,16.10
2023-05-12T04:44:11.633Z,16.05
2023-05-12T04:49:14.269Z,16.00
2023-05-12T04:54:15.714Z,15.97
2023-05-12T04:59:17.726Z,15.89
2023-05-12T05:04:21.328Z,15.86
2023-05-12T05:09:22.854Z,15.82
2023-05-12T05:14:24.608Z,16.21
2023-05-12T05:19:40.483Z,16.12
2023-05-12T05:24:48.745Z,16.17
2023-05-12T05:29:50.676Z,16.11
2023-05-12T05:34:52.386Z,15.94
2023-05-12T05:39:54.029Z,15.79
2023-05-12T05:44:56.274Z,16.02
2023-05-12T05:49:58.725Z,15.84
2023-05-12T05:55:00.473Z,16.04
2023-05-12T06:00:04.968Z,16.52
2023-05-12T06:05:14.895Z,16.42
2023-05-12T06:10:16.456Z,16.30
2023-05-12T06:15:18.797Z,16.13
2023-05-12T06:20:20.662Z,16.23
2023-05-12T06:25:22.384Z,16.45
2023-05-12T06:30:24.101Z,16.87
2023-05-12T06:35:29.241Z,16.82
2023-05-12T06:40:30.692Z,16.95
2023-05-12T06:45:32.114Z,16.93
2023-05-12T06:50:34.382Z,17.05
2023-05-12T06:55:35.832Z,17.43
2023-05-12T07:00:37.329Z,17.48
2023-05-12T07:05:38.798Z,17.55
2023-05-12T07:10:40.313Z,17.82
2023-05-12T07:15:41.982Z,18.11
2023-05-12T07:20:43.991Z,18.30
2023-05-12T07:25:45.478Z,18.33
2023-05-12T07:30:47.188Z,18.50
2023-05-12T07:35:48.629Z,18.64
2023-05-12T07:40:51.234Z,18.93
2023-05-12T07:45:52.894Z,19.36
2023-05-12T07:50:54.588Z,19.28
2023-05-12T07:55:56.166Z,19.43
2023-05-12T08:01:00.121Z,19.56
2023-05-12T08:06:04.641Z,20.11
2023-05-12T08:11:06.106Z,20.05
2023-05-12T08:16:07.525Z,20.24
2023-05-12T08:21:08.987Z,20.39
2023-05-12T08:26:10.518Z,20.37
2023-05-12T08:31:12.491Z,20.51
2023-05-12T08:36:14.452Z,20.85
2023-05-12T08:41:19.997Z,21.00
2023-05-12T08:46:22.520Z,20.81
2023-05-12T08:51:24.425Z,21.02
2023-05-12T09:01:31.655Z,22.15
2023-05-12T09:06:33.297Z,22.06
2023-05-12T09:11:34.747Z,21.84
2023-05-12T09:16:45.423Z,21.91
2023-05-12T09:21:47.741Z,21.94
2023-05-12T09:26:51.498Z,22.09
2023-05-12T09:31:54.268Z,21.97
2023-05-12T09:36:57.548Z,23.03
2023-05-12T09:41:59.246Z,22.75
2023-05-12T09:47:07.932Z,22.55
2023-05-12T09:52:09.412Z,22.74
2023-05-12T09:57:12.671Z,23.27
2023-05-12T10:02:16.479Z,22.99
2023-05-12T10:07:23.084Z,23.15
2023-05-12T10:12:24.544Z,24.42
2023-05-12T10:17:26.836Z,23.71
2023-05-12T10:22:29.522Z,23.86
2023-05-12T10:27:33.250Z,23.63
2023-05-12T10:32:34.937Z,23.94
2023-05-12T10:37:37.640Z,24.32
2023-05-12T10:42:41.373Z,25.45
2023-05-12T10:47:43.168Z,25.26
2023-05-12T10:52:56.501Z,25.33
2023-05-12T10:58:05.677Z,25.24
2023-05-12T11:03:13.374Z,25.34
2023-05-12T11:08:16.606Z,24.91
2023-05-12T11:13:19.499Z,23.77
2023-05-12T11:18:21.910Z,24.17
2023-05-12T11:23:28.866Z,23.94
2023-05-12T11:28:39.898Z,22.40
2023-05-12T11:33:41.496Z,24.95
2023-05-12T11:38:50.311Z,25.38
2023-05-12T11:43:52.855Z,25.73
2023-05-12T11:48:59.639Z,24.42
2023-05-12T11:54:01.128Z,25.82
2023-05-12T11:59:02.705Z,25.14
2023-05-12T12:04:04.413Z,25.36
2023-05-12T12:09:05.945Z,25.67
2023-05-12T12:14:07.563Z,25.90
2023-05-12T12:19:09.141Z,24.02
2023-05-12T12:24:10.798Z,24.55
2023-05-12T12:29:12.427Z,24.84
2023-05-12T12:34:13.882Z,24.85
2023-05-12T12:39:16.039Z,24.57
2023-05-12T12:44:19.535Z,25.10
2023-05-12T12:49:20.949Z,25.53
2023-05-12T12:54:22.647Z,24.66
2023-05-12T12:59:24.143Z,24.93
2023-05-12T13:04:25.587Z,23.75
2023-05-12T13:09:27.070Z,24.82
2023-05-12T13:14:28.511Z,24.27
2023-05-12T13:19:29.945Z,24.62
2023-05-12T13:24:31.484Z,23.60
2023-05-12T13:29:32.932Z,24.50
2023-05-12T13:34:34.501Z,24.52
2023-05-12T13:39:35.970Z,23.86
2023-05-12T13:44:37.771Z,24.67
2023-05-12T13:49:39.225Z,24.74
2023-05-12T13:54:40.855Z,25.16
2023-05-12T13:59:42.286Z,24.48
2023-05-12T14:04:43.732Z,24.74
2023-05-12T14:09:45.555Z,25.22
2023-05-12T14:14:49.916Z,24.79
2023-05-12T14:19:51.400Z,24.89
2023-05-12T14:24:53.753Z,25.61
2023-05-12T14:29:55.237Z,24.92
2023-05-12T14:34:57.111Z,25.13
2023-05-12T14:39:58.546Z,25.29
2023-05-12T14:45:00.040Z,25.03
2023-05-12T14:50:01.480Z,25.29
2023-05-12T14:55:03.674Z,24.68
2023-05-12T15:00:07.919Z,24.32
2023-05-12T15:05:11.149Z,22.99
2023-05-12T15:10:12.873Z,23.27
2023-05-12T15:15:14.405Z,24.08
2023-05-12T15:20:15.924Z,23.98
2023-05-12T15:25:17.365Z,23.25
2023-05-12T15:30:18.864Z,25.00
2023-05-12T15:35:20.566Z,23.65
2023-05-12T15:40:22.647Z,24.30
2023-05-12T15:45:24.096Z,24.11
2023-05-12T15:50:25.701Z,24.13
2023-05-12T15:55:27.162Z,24.40
2023-05-12T16:00:28.702Z,24.14
2023-05-12T16:05:30.709Z,23.95
2023-05-12T16:10:32.199Z,25.16
2023-05-12T16:15:33.650Z,24.66
2023-05-12T16:20:35.168Z,25.18
2023-05-12T16:25:37.325Z,25.45
2023-05-12T16:30:38.747Z,26.33
2023-05-12T16:35:40.194Z,24.52
2023-05-12T16:40:41.635Z,24.75
2023-05-12T16:45:43.514Z,24.80
2023-05-12T16:50:45.026Z,24.53
2023-05-12T16:55:46.451Z,25.03
2023-05-12T17:00:47.877Z,23.73
2023-05-12T17:05:49.992Z,24.20
2023-05-12T17:10:51.644Z,24.70
2023-05-12T17:15:53.247Z,25.33
2023-05-12T17:20:54.771Z,23.19
2023-05-12T17:25:56.432Z,24.02
2023-05-12T17:30:58.551Z,23.11
2023-05-12T17:36:11.353Z,23.96
2023-05-12T17:41:13.600Z,23.27
2023-05-12T17:46:15.153Z,22.10
2023-05-12T17:51:16.880Z,23.04
2023-05-12T17:56:18.365Z,24.41
2023-05-12T18:01:19.877Z,23.89
2023-05-12T18:06:21.325Z,24.14
2023-05-12T18:11:22.822Z,22.47
2023-05-12T18:16:28.945Z,22.51
2023-05-12T18:21:31.164Z,23.73
2023-05-12T18:26:32.666Z,21.56
2023-05-12T18:31:36.017Z,21.79
2023-05-12T18:36:37.490Z,23.27
2023-05-12T18:41:38.912Z,23.19
2023-05-12T18:46:40.388Z,23.40
2023-05-12T18:51:41.855Z,23.32
2023-05-12T18:56:43.361Z,23.19
2023-05-12T19:01:44.896Z,22.99
2023-05-12T19:06:46.725Z,22.92
2023-05-12T19:11:48.154Z,21.42
2023-05-12T19:16:49.643Z,21.80
2023-05-12T19:21:52.083Z,22.17
2023-05-12T19:26:53.532Z,22.18
2023-05-12T19:31:55.187Z,22.01
2023-05-12T19:37:00.628Z,21.96
2023-05-12T19:42:02.116Z,21.77
2023-05-12T19:47:06.529Z,21.66
2023-05-12T19:52:08.140Z,21.45
2023-05-12T19:57:09.550Z,21.37
2023-05-12T20:02:14.819Z,21.26
2023-05-12T20:07:16.303Z,21.13
2023-05-12T20:12:17.765Z,20.97
2023-05-12T20:17:19.209Z,20.83
2023-05-12T20:22:21.915Z,20.67
2023-05-12T20:27:23.365Z,20.51
2023-05-12T20:32:24.995Z,20.36
2023-05-12T20:37:26.983Z,20.24
2023-05-12T20:42:28.548Z,20.11
2023-05-12T20:47:30.656Z,19.40
2023-05-12T20:52:33.713Z,19.59
2023-05-12T20:57:35.284Z,19.62
2023-05-12T21:02:36.920Z,19.56
2023-05-12T21:07:38.376Z,18.66
2023-05-12T21:12:39.852Z,19.10
2023-05-12T21:17:41.661Z,19.16
2023-05-12T21:22:43.133Z,19.06
2023-05-12T21:27:45.754Z,18.99
2023-05-12T21:32:47.257Z,18.92
2023-05-12T21:37:51.648Z,18.72
2023-05-12T21:42:53.161Z,18.56
2023-05-12T21:47:54.643Z,17.94
2023-05-12T21:52:56.126Z,18.32
2023-05-12T21:57:58.592Z,18.01
2023-05-12T22:03:00.176Z,18.08
2023-05-12T22:08:01.924Z,18.06
2023-05-12T22:13:03.356Z,17.96
2023-05-12T22:18:05.049Z,17.89
2023-05-12T22:23:06.555Z,17.83
2023-05-12T22:28:08.017Z,17.68
2023-05-12T22:33:09.527Z,17.41
2023-05-12T22:38:11.029Z,17.51
2023-05-12T22:43:15.242Z,17.49
2023-05-12T22:48:16.686Z,17.31
2023-05-12T22:53:18.155Z,17.26
2023-05-12T22:58:19.584Z,17.25
2023-05-12T23:03:21.014Z,17.14
2023-05-12T23:08:22.448Z,17.05
2023-05-12T23:13:23.888Z,16.83
2023-05-12T23:18:25.400Z,16.79
2023-05-12T23:23:26.864Z,16.79
2023-05-12T23:28:28.336Z,16.74
2023-05-12T23:33:29.946Z,16.38
2023-05-12T23:38:31.505Z,16.24
2023-05-12T23:43:32.944Z,16.40
2023-05-12T23:48:34.383Z,16.19
2023-05-12T23:53:35.861Z,14.31
2023-05-12T23:58:37.311Z,15.46
